createdAt,value
2022-12-07T00:00:44.445Z,9.05
2022-12-07T00:03:48.250Z,9.85
2022-12-07T00:06:54.276Z,11.00
2022-12-07T00:09:56.374Z,12.13
2022-12-07T00:12:58.466Z,11.27
2022-12-07T00:16:07.061Z,11.63
2022-12-07T00:19:11.388Z,11.12
2022-12-07T00:22:13.427Z,11.03
2022-12-07T00:25:15.492Z,11.13
2022-12-07T00:28:17.624Z,10.73
2022-12-07T00:31:22.116Z,10.60
2022-12-07T00:34:24.291Z,11.27
2022-12-07T00:37:26.399Z,10.57
2022-12-07T00:40:28.433Z,11.53
2022-12-07T00:43:30.858Z,10.60
2022-12-07T00:46:33.017Z,11.00
2022-12-07T00:49:35.150Z,11.10
2022-12-07T00:52:37.287Z,10.37
2022-12-07T00:55:39.568Z,11.57
2022-12-07T00:58:42.544Z,10.13
2022-12-07T01:01:44.700Z,9.50
2022-12-07T01:04:46.854Z,9.60
2022-12-07T01:07:48.937Z,9.97
2022-12-07T01:10:58.332Z,8.87
2022-12-07T01:14:01.860Z,8.90
2022-12-07T01:17:03.938Z,8.27
2022-12-07T01:20:08.153Z,8.20
2022-12-07T01:23:10.329Z,8.37
2022-12-07T01:26:15.370Z,7.23
2022-12-07T01:29:17.411Z,7.12
2022-12-07T01:32:19.528Z,8.85
2022-12-07T01:35:21.578Z,7.03
2022-12-07T01:38:23.637Z,8.23
2022-12-07T01:41:29.541Z,7.27
2022-12-07T01:44:33.145Z,7.72
2022-12-07T01:47:35.207Z,8.13
2022-12-07T01:50:39.268Z,7.30
2022-12-07T01:53:52.279Z,7.67
2022-12-07T01:56:58.031Z,8.33
2022-12-07T02:00:01.907Z,7.53
2022-12-07T02:03:12.327Z,7.45
2022-12-07T02:06:20.322Z,8.48
2022-12-07T02:09:22.358Z,7.53
2022-12-07T02:12:26.172Z,5.33
2022-12-07T02:15:43.468Z,5.05
2022-12-07T02:18:48.619Z,6.20
2022-12-07T02:21:59.577Z,6.45
2022-12-07T02:25:15.291Z,5.70
2022-12-07T02:28:41.131Z,6.23
2022-12-07T02:31:53.778Z,6.43
2022-12-07T02:35:14.272Z,4.80
2022-12-07T02:38:22.026Z,5.65
2022-12-07T02:41:49.634Z,6.33
2022-12-07T02:44:53.091Z,4.93
2022-12-07T02:48:00.013Z,3.67
2022-12-07T02:51:02.169Z,5.62
2022-12-07T02:54:15.074Z,5.50
2022-12-07T02:57:37.167Z,6.03
2022-12-07T03:00:52.239Z,5.87
2022-12-07T03:04:17.006Z,6.28
2022-12-07T03:07:32.257Z,6.25
2022-12-07T03:10:40.877Z,5.78
2022-12-07T03:13:52.238Z,5.97
2022-12-07T03:17:04.902Z,5.60
2022-12-07T03:20:10.779Z,5.37
2022-12-07T03:23:13.876Z,5.22
2022-12-07T03:26:19.290Z,5.68
2022-12-07T03:29:26.701Z,5.63
2022-12-07T03:32:52.878Z,5.27
2022-12-07T03:36:13.255Z,4.90
2022-12-07T03:39:23.897Z,5.40
2022-12-07T03:42:26.097Z,4.25
2022-12-07T03:45:42.319Z,4.97
2022-12-07T03:48:52.320Z,5.17
2022-12-07T03:52:04.528Z,4.82
2022-12-07T03:55:24.128Z,4.22
2022-12-07T03:58:26.998Z,4.07
2022-12-07T04:01:29.289Z,4.10
2022-12-07T04:04:32.143Z,4.67
2022-12-07T04:07:34.422Z,4.05
2022-12-07T04:10:36.790Z,4.85
2022-12-07T04:13:58.814Z,4.28
2022-12-07T04:17:01.061Z,3.83
2022-12-07T04:20:05.328Z,5.03
2022-12-07T04:23:07.661Z,5.43
2022-12-07T04:26:09.670Z,6.03
2022-12-07T04:29:12.385Z,6.43
2022-12-07T04:32:14.392Z,5.40
2022-12-07T04:35:16.528Z,4.77
2022-12-07T04:38:18.630Z,4.43
2022-12-07T04:41:27.993Z,4.60
2022-12-07T04:44:30.912Z,5.55
2022-12-07T04:47:33.024Z,6.03
2022-12-07T04:50:36.735Z,5.50
2022-12-07T04:53:38.736Z,6.78
2022-12-07T04:56:41.054Z,5.37
2022-12-07T04:59:45.842Z,5.47
2022-12-07T05:02:48.241Z,4.87
2022-12-07T05:05:50.385Z,5.13
2022-12-07T05:08:52.704Z,3.30
2022-12-07T05:11:54.712Z,4.78
2022-12-07T05:14:56.778Z,4.78
2022-12-07T05:17:58.781Z,4.40
2022-12-07T05:21:00.967Z,4.80
2022-12-07T05:24:03.519Z,4.32
2022-12-07T05:27:05.601Z,4.47
2022-12-07T05:30:08.357Z,1.98
2022-12-07T05:33:10.555Z,4.20
2022-12-07T05:36:12.623Z,4.43
2022-12-07T05:39:14.940Z,5.15
2022-12-07T05:42:18.122Z,3.83
2022-12-07T05:45:20.245Z,4.82
2022-12-07T05:48:22.688Z,4.63
2022-12-07T05:51:24.821Z,4.80
2022-12-07T05:54:27.141Z,4.70
2022-12-07T05:57:29.137Z,2.35
2022-12-07T06:00:31.244Z,2.37
2022-12-07T06:03:33.362Z,3.83
2022-12-07T06:06:35.476Z,5.43
2022-12-07T06:09:38.963Z,4.70
2022-12-07T06:12:43.693Z,1.30
2022-12-07T06:15:45.846Z,4.00
2022-12-07T06:18:48.155Z,1.20
2022-12-07T06:21:50.155Z,5.00
2022-12-07T06:24:52.203Z,4.90
2022-12-07T06:27:56.445Z,5.12
2022-12-07T06:31:00.483Z,4.72
2022-12-07T06:34:07.577Z,7.63
2022-12-07T06:37:09.619Z,6.40
2022-12-07T06:40:11.970Z,5.28
2022-12-07T06:43:14.517Z,5.70
2022-12-07T06:46:17.238Z,3.85
2022-12-07T06:49:19.671Z,8.77
2022-12-07T06:52:21.761Z,3.80
2022-12-07T06:55:23.805Z,7.85
2022-12-07T06:58:26.078Z,6.70
2022-12-07T07:01:28.228Z,6.70
2022-12-07T07:04:30.422Z,9.57
2022-12-07T07:07:41.663Z,6.73
2022-12-07T07:10:54.166Z,15.00
2022-12-07T07:13:58.272Z,6.00
2022-12-07T07:17:00.415Z,6.78
2022-12-07T07:20:02.901Z,6.30
2022-12-07T07:23:05.474Z,5.57
2022-12-07T07:26:07.536Z,6.47
2022-12-07T07:29:09.966Z,4.93
2022-12-07T07:32:12.169Z,7.87
2022-12-07T07:35:15.239Z,7.10
2022-12-07T07:38:17.252Z,6.90
2022-12-07T07:41:19.233Z,8.98
2022-12-07T07:44:21.343Z,7.95
2022-12-07T07:47:23.330Z,8.32
2022-12-07T07:50:25.521Z,6.57
2022-12-07T07:53:27.680Z,6.10
2022-12-07T07:56:29.888Z,6.22
2022-12-07T07:59:32.167Z,6.15
2022-12-07T08:02:34.263Z,6.37
2022-12-07T08:05:38.477Z,7.13
2022-12-07T08:08:40.877Z,7.00
2022-12-07T08:11:43.036Z,6.30
2022-12-07T08:14:45.042Z,4.70
2022-12-07T08:17:47.354Z,5.55
2022-12-07T08:20:49.540Z,6.23
2022-12-07T08:23:51.583Z,6.20
2022-12-07T08:26:53.726Z,5.82
2022-12-07T08:29:55.830Z,6.53
2022-12-07T08:32:57.848Z,5.90
2022-12-07T08:36:05.885Z,4.97
2022-12-07T08:39:30.775Z,3.93
2022-12-07T08:42:38.611Z,3.97
2022-12-07T08:45:41.892Z,4.40
2022-12-07T08:48:50.142Z,4.60
2022-12-07T08:51:52.804Z,5.00
2022-12-07T08:54:54.954Z,5.53
2022-12-07T08:57:59.741Z,8.73
2022-12-07T09:01:01.773Z,9.27
2022-12-07T09:04:04.500Z,6.65
2022-12-07T09:07:07.390Z,5.90
2022-12-07T09:10:09.842Z,5.73
2022-12-07T09:13:12.028Z,7.87
2022-12-07T09:16:14.158Z,7.57
2022-12-07T09:19:16.525Z,8.63
2022-12-07T09:22:18.755Z,9.77
2022-12-07T09:25:20.802Z,8.13
2022-12-07T09:28:23.021Z,9.25
2022-12-07T09:31:26.233Z,7.68
2022-12-07T09:34:32.085Z,10.40
2022-12-07T09:37:36.266Z,9.87
2022-12-07T09:40:38.397Z,8.50
2022-12-07T09:43:41.570Z,11.23
2022-12-07T09:46:46.059Z,10.60
2022-12-07T09:49:48.435Z,10.48
2022-12-07T09:52:51.963Z,10.83
2022-12-07T09:55:55.468Z,10.30
2022-12-07T09:59:02.115Z,8.98
2022-12-07T10:02:26.622Z,8.57
2022-12-07T10:05:46.515Z,9.60
2022-12-07T10:08:49.028Z,8.73
2022-12-07T10:12:12.546Z,9.63
2022-12-07T10:15:15.428Z,8.88
2022-12-07T10:18:31.498Z,6.18
2022-12-07T10:21:33.552Z,7.00
2022-12-07T10:24:35.793Z,8.33
2022-12-07T10:27:37.924Z,7.87
2022-12-07T10:31:03.408Z,7.45
2022-12-07T10:34:22.832Z,7.90
2022-12-07T10:37:28.669Z,7.43
2022-12-07T10:40:37.706Z,8.57
2022-12-07T10:43:49.605Z,8.20
2022-12-07T10:47:32.135Z,8.25
2022-12-07T10:50:49.261Z,6.22
2022-12-07T10:54:00.546Z,7.32
2022-12-07T10:57:08.505Z,5.80
2022-12-07T11:00:19.023Z,6.53
2022-12-07T11:03:32.313Z,3.58
2022-12-07T11:06:46.180Z,8.18
2022-12-07T11:10:09.448Z,7.20
2022-12-07T11:13:34.843Z,5.33
2022-12-07T11:16:45.932Z,5.17
2022-12-07T11:19:52.516Z,6.50
2022-12-07T11:23:03.613Z,4.15
2022-12-07T11:26:17.802Z,6.65
2022-12-07T11:29:30.465Z,6.63
2022-12-07T11:32:41.510Z,5.30
2022-12-07T11:35:55.450Z,6.25
2022-12-07T11:39:02.478Z,6.87
2022-12-07T11:42:15.432Z,5.75
2022-12-07T11:45:40.769Z,6.90
2022-12-07T11:48:58.881Z,7.10
2022-12-07T11:52:05.244Z,7.00
2022-12-07T11:55:22.398Z,6.90
2022-12-07T11:58:43.449Z,3.72
2022-12-07T12:02:04.123Z,6.60
2022-12-07T12:05:15.688Z,7.13
2022-12-07T12:16:19.122Z,6.55
2022-12-07T12:19:34.560Z,6.30
2022-12-07T12:22:45.130Z,6.80
2022-12-07T12:25:53.942Z,6.47
2022-12-07T12:29:04.268Z,6.85
2022-12-07T12:32:47.684Z,7.50
2022-12-07T12:36:21.965Z,6.23
2022-12-07T12:39:24.509Z,6.27
2022-12-07T12:43:04.874Z,7.37
2022-12-07T12:46:35.011Z,7.00
2022-12-07T12:49:39.690Z,5.45
2022-12-07T12:52:44.552Z,6.23
2022-12-07T12:55:56.081Z,6.33
2022-12-07T12:59:23.238Z,6.47
2022-12-07T13:02:28.402Z,6.28
2022-12-07T13:05:31.707Z,6.87
2022-12-07T13:08:36.928Z,5.27
2022-12-07T13:11:45.711Z,7.47
2022-12-07T13:14:59.346Z,6.50
2022-12-07T13:18:04.051Z,7.05
2022-12-07T13:21:08.870Z,6.62
2022-12-07T13:24:13.991Z,6.23
2022-12-07T13:27:16.098Z,6.73
2022-12-07T13:30:21.654Z,6.47
2022-12-07T13:33:24.225Z,6.53
2022-12-07T13:36:30.217Z,6.45
2022-12-07T13:39:36.422Z,7.30
2022-12-07T13:42:38.472Z,6.77
2022-12-07T13:45:50.143Z,7.93
2022-12-07T13:48:52.942Z,7.00
2022-12-07T13:51:56.992Z,5.85
2022-12-07T13:55:06.998Z,7.00
2022-12-07T13:58:10.384Z,6.57
2022-12-07T14:01:14.485Z,6.50
2022-12-07T14:04:37.080Z,4.78
2022-12-07T14:08:10.870Z,5.50
2022-12-07T14:11:21.365Z,6.83
2022-12-07T14:14:31.606Z,6.50
2022-12-07T14:17:36.742Z,6.55
2022-12-07T14:20:41.145Z,7.30
2022-12-07T14:23:43.801Z,8.15
2022-12-07T14:26:50.991Z,8.37
2022-12-07T14:29:53.105Z,8.93
2022-12-07T14:32:59.928Z,8.10
2022-12-07T14:36:02.123Z,8.38
2022-12-07T14:39:06.498Z,5.30
2022-12-07T14:42:12.198Z,6.03
2022-12-07T14:45:20.705Z,7.37
2022-12-07T14:55:38.825Z,7.78
2022-12-07T14:58:41.467Z,7.83
2022-12-07T15:01:44.324Z,8.27
2022-12-07T15:04:46.508Z,7.95
2022-12-07T15:07:50.431Z,8.32
2022-12-07T15:10:52.512Z,9.18
2022-12-07T15:14:09.549Z,8.00
2022-12-07T15:17:27.716Z,8.03
2022-12-07T15:20:33.706Z,8.90
2022-12-07T15:23:35.800Z,10.88
2022-12-07T15:26:38.684Z,9.55
2022-12-07T15:29:40.748Z,10.33
2022-12-07T15:32:43.085Z,9.87
2022-12-07T15:35:46.516Z,10.23
2022-12-07T15:39:13.163Z,10.85
2022-12-07T15:42:11.492Z,10.90
2022-12-07T15:45:14.536Z,11.40
2022-12-07T15:48:28.018Z,11.23
2022-12-07T15:51:31.016Z,11.45
2022-12-07T15:54:33.463Z,10.88
2022-12-07T15:57:38.096Z,11.82
2022-12-07T16:00:40.325Z,12.17
2022-12-07T16:03:43.366Z,12.53
2022-12-07T16:06:45.819Z,12.52
2022-12-07T16:09:48.750Z,13.18
2022-12-07T16:12:50.776Z,9.85
2022-12-07T16:15:52.858Z,10.60
2022-12-07T16:18:55.264Z,11.40
2022-12-07T16:21:57.645Z,13.43
2022-12-07T16:24:59.739Z,14.38
2022-12-07T16:28:01.921Z,14.25
2022-12-07T16:34:30.531Z,12.57
2022-12-07T16:37:32.616Z,12.35
2022-12-07T16:40:34.737Z,11.95
2022-12-07T16:43:37.089Z,9.25
2022-12-07T16:46:39.799Z,10.50
2022-12-07T16:49:42.042Z,10.50
2022-12-07T16:52:44.248Z,8.82
2022-12-07T16:55:46.688Z,10.80
2022-12-07T16:58:50.461Z,11.65
2022-12-07T17:01:53.035Z,11.10
2022-12-07T17:04:55.045Z,10.57
2022-12-07T17:07:58.265Z,11.10
2022-12-07T17:11:01.017Z,10.30
2022-12-07T17:14:21.532Z,10.45
2022-12-07T17:17:24.214Z,9.50
2022-12-07T17:20:28.189Z,10.27
2022-12-07T17:23:30.392Z,11.82
2022-12-07T17:26:35.695Z,11.12
2022-12-07T17:29:38.934Z,10.63
2022-12-07T17:32:41.344Z,11.00
2022-12-07T17:35:43.326Z,12.20
2022-12-07T17:38:45.663Z,11.52
2022-12-07T17:42:06.702Z,11.55
2022-12-07T17:45:10.951Z,11.88
2022-12-07T17:48:13.683Z,12.70
2022-12-07T17:51:34.101Z,11.10
2022-12-07T17:54:36.272Z,11.27
2022-12-07T17:57:38.985Z,11.38
2022-12-07T18:00:43.439Z,12.37
2022-12-07T18:03:45.972Z,10.73
2022-12-07T18:06:52.116Z,10.67
2022-12-07T18:09:55.230Z,12.40
2022-12-07T18:13:17.915Z,13.18
2022-12-07T18:16:23.229Z,11.27
2022-12-07T18:19:29.951Z,6.20
2022-12-07T18:22:33.505Z,10.17
2022-12-07T18:25:36.157Z,10.52
2022-12-07T18:28:38.653Z,10.75
2022-12-07T18:31:42.054Z,10.73
2022-12-07T18:34:44.752Z,9.60
2022-12-07T18:37:47.493Z,8.30
2022-12-07T18:40:50.733Z,9.45
2022-12-07T18:43:54.033Z,11.27
2022-12-07T18:46:56.752Z,9.40
2022-12-07T18:49:59.372Z,8.80
2022-12-07T18:53:04.430Z,6.93
2022-12-07T18:56:15.801Z,6.82
2022-12-07T18:59:38.352Z,6.65
2022-12-07T19:02:41.447Z,6.68
2022-12-07T19:05:44.041Z,5.57
2022-12-07T19:08:46.581Z,6.97
2022-12-07T19:11:52.684Z,6.18
2022-12-07T19:14:56.078Z,7.30
2022-12-07T19:17:58.820Z,6.97
2022-12-07T19:21:04.286Z,6.90
2022-12-07T19:24:08.207Z,6.60
2022-12-07T19:27:11.463Z,7.70
2022-12-07T19:30:14.489Z,8.55
2022-12-07T19:33:17.151Z,8.25
2022-12-07T19:36:21.837Z,9.70
2022-12-07T19:39:24.404Z,7.57
2022-12-07T19:42:27.456Z,7.43
2022-12-07T19:45:34.497Z,6.93
2022-12-07T19:48:37.631Z,7.18
2022-12-07T19:51:40.125Z,5.47
2022-12-07T19:54:42.845Z,7.80
2022-12-07T19:57:45.554Z,8.60
2022-12-07T20:00:48.593Z,7.03
2022-12-07T20:03:51.075Z,7.85
2022-12-07T20:07:00.296Z,8.93
2022-12-07T20:10:02.765Z,6.40
2022-12-07T20:13:24.187Z,7.82
2022-12-07T20:16:27.464Z,7.07
2022-12-07T20:19:30.707Z,7.30
2022-12-07T20:22:33.629Z,7.57
2022-12-07T20:25:37.202Z,9.10
2022-12-07T20:28:40.433Z,10.05
2022-12-07T20:31:44.361Z,10.10
2022-12-07T20:34:47.472Z,9.38
2022-12-07T20:37:50.493Z,7.93
2022-12-07T20:40:53.224Z,8.50
2022-12-07T20:43:56.986Z,8.50
2022-12-07T20:47:00.295Z,8.75
2022-12-07T20:50:05.218Z,8.73
2022-12-07T20:53:07.935Z,8.30
2022-12-07T20:56:22.622Z,8.73
2022-12-07T20:59:25.224Z,8.93
2022-12-07T21:02:28.003Z,10.35
2022-12-07T21:05:30.526Z,8.57
2022-12-07T21:08:32.940Z,9.50
2022-12-07T21:11:35.040Z,9.07
2022-12-07T21:14:42.103Z,9.55
2022-12-07T21:17:44.213Z,4.43
2022-12-07T21:20:46.291Z,8.77
2022-12-07T21:23:50.956Z,4.87
2022-12-07T21:26:53.084Z,7.13
2022-12-07T21:29:55.410Z,8.80
2022-12-07T21:32:57.524Z,8.02
2022-12-07T21:36:00.308Z,4.93
2022-12-07T21:39:02.728Z,3.60
2022-12-07T21:42:04.889Z,4.93
2022-12-07T21:45:07.250Z,5.22
2022-12-07T21:48:09.809Z,7.30
2022-12-07T21:51:13.659Z,6.15
2022-12-07T21:54:17.067Z,5.33
2022-12-07T21:57:21.174Z,5.03
2022-12-07T22:00:25.019Z,4.35
2022-12-07T22:03:27.051Z,6.70
2022-12-07T22:06:29.172Z,5.37
2022-12-07T22:09:32.450Z,4.77
2022-12-07T22:12:34.607Z,4.17
2022-12-07T22:15:41.013Z,4.50
2022-12-07T22:18:43.218Z,4.65
2022-12-07T22:21:45.334Z,4.40
2022-12-07T22:24:48.448Z,4.63
2022-12-07T22:27:50.500Z,4.20
2022-12-07T22:30:52.768Z,5.15
2022-12-07T22:33:55.262Z,5.15
2022-12-07T22:36:57.300Z,6.07
2022-12-07T22:39:59.659Z,4.87
2022-12-07T22:43:01.674Z,5.87
2022-12-07T22:46:04.138Z,4.82
2022-12-07T22:49:07.063Z,5.00
2022-12-07T22:52:09.949Z,5.78
2022-12-07T22:55:12.011Z,6.80
2022-12-07T22:58:14.621Z,5.73
2022-12-07T23:01:18.107Z,5.68
2022-12-07T23:04:20.277Z,6.18
2022-12-07T23:07:22.361Z,4.60
2022-12-07T23:10:24.642Z,5.93
2022-12-07T23:13:32.970Z,5.17
2022-12-07T23:16:35.067Z,5.25
2022-12-07T23:19:37.793Z,6.00
2022-12-07T23:22:40.299Z,5.85
2022-12-07T23:25:42.352Z,7.30
2022-12-07T23:28:44.817Z,8.00
2022-12-07T23:31:48.183Z,6.12
2022-12-07T23:34:50.337Z,5.22
2022-12-07T23:37:52.393Z,6.05
2022-12-07T23:40:54.381Z,6.63
2022-12-07T23:43:58.185Z,5.67
2022-12-07T23:47:00.388Z,3.33
2022-12-07T23:50:04.482Z,5.22
2022-12-07T23:53:06.574Z,4.28
2022-12-07T23:56:13.022Z,5.27
2022-12-07T23:59:14.997Z,5.93
